首页
METAR-TAF:

METAR-TAF

机场 :

Key Lake, 薩斯喀徹溫, 加拿大

纬度: 57-15N, 经度: 105-37W, 海拔: 509米

当前天气观测

该预报发布于18分钟前的20:10 UTC
风速10节,风向西
温度 -17°C
湿度 65%
气压 1018 hPa
能見度: 9.7公里
多云层高于2200英尺
小雪

METAR: CYKJ 022010Z AUTO 27010KT 6SM -SN BKN022 M17/M22 A3007 RMK SLP239

时间: 14:28 (20:28 UTC)

预报

该预报发布于29分钟前的19:59 UTC
预报有效从02日的 19点(UTC)到 02日的 24点(UTC)
风速8节,风向西
能見度: 10公里
散云层高于2000英尺
阴天层高于4000英尺
短暂存在
从 02日的 19点(UTC)到 02日的 24点(UTC)
能見度: 6.4公里
阴天层高于2000英尺
小雪, 轻雾
成为
从 02日的 22点(UTC)到 02日的 24点(UTC)
风速8节,风向西

TAF: CYKJ 021959Z 0219/0224 28008KT P6SM SCT020 OVC040 TEMPO 0219/0224 4SM -SN BR OVC020 BECMG 0222/0224 28008KT RMK FCST BASED ON AUTO OBS. NXT FCST WILL BE ISSUED AT 030945Z

超过4000个机场的气象观测和天气预报(METAR&TAF报告)。

可查询的气象台以黄色和红色小点在地图上表示。

将鼠标移到小点上方,可查看气象台名称。

然后点击查看天气观测和预报。

如需切换地图:点击带黑十字的绿色按钮放大地图;点击带横线的绿色按钮缩小地图;或者点击绿色箭头查看邻近地区的地图。


METAR-TAF: